createdAt,value
2022-08-26T00:01:53.791Z,10.65
2022-08-26T00:04:22.317Z,13.18
2022-08-26T00:06:49.388Z,11.27
2022-08-26T00:09:16.874Z,11.48
2022-08-26T00:11:45.433Z,12.00
2022-08-26T00:14:13.960Z,12.45
2022-08-26T00:16:47.763Z,13.55
2022-08-26T00:19:16.357Z,12.23
2022-08-26T00:21:44.421Z,12.75
2022-08-26T00:24:11.408Z,13.65
2022-08-26T00:26:39.647Z,13.00
2022-08-26T00:29:08.687Z,13.80
2022-08-26T00:31:36.776Z,12.13
2022-08-26T00:34:04.656Z,12.63
2022-08-26T00:36:32.406Z,13.13
2022-08-26T00:38:59.709Z,11.20
2022-08-26T00:41:28.930Z,13.48
2022-08-26T00:43:56.430Z,12.93
2022-08-26T00:46:39.904Z,11.00
2022-08-26T00:49:19.933Z,12.30
2022-08-26T00:51:55.107Z,12.30
2022-08-26T00:54:27.019Z,11.63
2022-08-26T00:57:16.486Z,12.70
2022-08-26T00:59:47.702Z,12.20
2022-08-26T01:02:20.155Z,12.20
2022-08-26T01:07:25.689Z,12.88
2022-08-26T01:09:52.741Z,11.13
2022-08-26T01:12:22.245Z,12.52
2022-08-26T01:14:50.407Z,12.30
2022-08-26T01:17:17.793Z,11.90
2022-08-26T01:19:56.713Z,12.18
2022-08-26T01:22:31.418Z,12.52
2022-08-26T01:25:01.071Z,13.60
2022-08-26T01:27:32.950Z,11.65
2022-08-26T01:30:02.944Z,11.77
2022-08-26T01:32:33.352Z,14.23
2022-08-26T01:35:01.157Z,12.35
2022-08-26T01:37:34.886Z,13.07
2022-08-26T01:40:02.609Z,12.75
2022-08-26T01:42:29.953Z,12.70
2022-08-26T01:44:59.892Z,12.48
2022-08-26T01:47:30.209Z,13.13
2022-08-26T01:50:03.053Z,12.70
2022-08-26T01:52:33.416Z,12.65
2022-08-26T01:55:01.587Z,12.90
2022-08-26T01:57:29.477Z,12.32
2022-08-26T02:00:01.298Z,12.98
2022-08-26T02:02:28.429Z,10.98
2022-08-26T02:05:01.979Z,12.35
2022-08-26T02:07:29.600Z,10.88
2022-08-26T02:09:56.951Z,10.50
2022-08-26T02:12:26.037Z,9.93
2022-08-26T02:14:56.762Z,11.68
2022-08-26T02:17:43.304Z,11.65
2022-08-26T02:20:14.966Z,11.27
2022-08-26T02:22:43.003Z,11.90
2022-08-26T02:25:22.998Z,12.48
2022-08-26T02:27:50.160Z,10.35
2022-08-26T02:30:21.074Z,10.85
2022-08-26T02:32:49.785Z,11.27
2022-08-26T02:35:20.364Z,12.32
2022-08-26T02:37:49.499Z,12.40
2022-08-26T02:40:21.574Z,11.82
2022-08-26T02:42:49.077Z,10.32
2022-08-26T02:45:16.791Z,11.90
2022-08-26T02:47:51.726Z,11.23
2022-08-26T02:50:20.597Z,11.93
2022-08-26T02:52:48.688Z,11.27
2022-08-26T02:55:16.219Z,12.52
2022-08-26T02:57:43.349Z,11.77
2022-08-26T03:00:14.644Z,10.88
2022-08-26T03:02:42.246Z,12.13
2022-08-26T03:05:10.014Z,11.63
2022-08-26T03:07:37.235Z,10.88
2022-08-26T03:10:08.159Z,10.40
2022-08-26T03:12:35.941Z,10.60
2022-08-26T03:15:03.394Z,10.55
2022-08-26T03:17:44.442Z,11.10
2022-08-26T03:20:11.754Z,10.48
2022-08-26T03:22:40.686Z,10.45
2022-08-26T03:25:10.267Z,9.60
2022-08-26T03:27:37.373Z,10.52
2022-08-26T03:30:23.804Z,10.57
2022-08-26T03:32:50.900Z,9.95
2022-08-26T03:35:18.734Z,11.95
2022-08-26T03:37:49.420Z,9.98
2022-08-26T03:40:16.627Z,10.63
2022-08-26T03:42:47.895Z,8.77
2022-08-26T03:45:17.911Z,10.23
2022-08-26T03:47:46.003Z,9.52
2022-08-26T03:50:16.352Z,10.90
2022-08-26T03:52:44.178Z,11.63
2022-08-26T03:55:11.538Z,10.05
2022-08-26T03:57:38.472Z,11.20
2022-08-26T04:00:08.868Z,11.07
2022-08-26T04:02:38.171Z,11.52
2022-08-26T04:05:05.696Z,9.30
2022-08-26T04:07:33.205Z,10.75
2022-08-26T04:10:00.287Z,10.65
2022-08-26T04:12:27.227Z,10.23
2022-08-26T04:14:54.232Z,9.63
2022-08-26T04:17:26.317Z,10.13
2022-08-26T04:19:54.202Z,10.77
2022-08-26T04:22:24.034Z,10.50
2022-08-26T04:24:52.487Z,11.02
2022-08-26T04:27:19.926Z,10.60
2022-08-26T04:29:47.687Z,10.98
2022-08-26T04:32:15.768Z,10.82
2022-08-26T04:34:44.991Z,13.85
2022-08-26T04:37:13.304Z,10.18
2022-08-26T04:39:40.619Z,12.20
2022-08-26T04:42:07.767Z,12.15
2022-08-26T04:44:37.102Z,10.60
2022-08-26T04:47:04.804Z,12.20
2022-08-26T04:49:35.526Z,11.50
2022-08-26T04:52:04.077Z,11.23
2022-08-26T04:54:32.711Z,13.40
2022-08-26T04:57:00.023Z,12.23
2022-08-26T04:59:26.928Z,11.27
2022-08-26T05:01:57.466Z,10.68
2022-08-26T05:04:24.576Z,10.30
2022-08-26T05:06:55.677Z,11.75
2022-08-26T05:09:25.601Z,12.35
2022-08-26T05:11:52.720Z,11.63
2022-08-26T05:14:23.458Z,11.27
2022-08-26T05:16:51.779Z,10.88
2022-08-26T05:19:19.561Z,11.77
2022-08-26T05:21:48.581Z,11.82
2022-08-26T05:24:16.825Z,11.50
2022-08-26T05:26:46.069Z,11.55
2022-08-26T05:29:14.051Z,11.18
2022-08-26T05:31:41.637Z,12.18
2022-08-26T05:34:09.134Z,11.70
2022-08-26T05:36:38.216Z,11.82
2022-08-26T05:39:06.452Z,11.57
2022-08-26T05:41:38.418Z,12.02
2022-08-26T05:44:08.975Z,12.18
2022-08-26T05:46:37.237Z,10.38
2022-08-26T05:49:05.952Z,11.73
2022-08-26T05:51:39.738Z,12.35
2022-08-26T05:54:10.479Z,10.95
2022-08-26T05:56:40.811Z,10.88
2022-08-26T05:59:21.290Z,9.73
2022-08-26T06:01:52.352Z,10.23
2022-08-26T06:04:19.992Z,10.70
2022-08-26T06:06:47.494Z,10.23
2022-08-26T06:09:14.818Z,9.73
2022-08-26T06:11:45.501Z,9.98
2022-08-26T06:14:12.936Z,11.85
2022-08-26T06:16:43.874Z,9.25
2022-08-26T06:19:14.543Z,11.18
2022-08-26T06:21:45.482Z,9.52
2022-08-26T06:24:37.125Z,8.73
2022-08-26T06:27:09.616Z,9.15
2022-08-26T06:29:38.547Z,8.07
2022-08-26T06:32:08.883Z,9.18
2022-08-26T06:34:36.451Z,8.98
2022-08-26T06:37:03.792Z,8.68
2022-08-26T06:39:31.735Z,8.80
2022-08-26T06:42:00.403Z,7.80
2022-08-26T06:44:28.075Z,8.23
2022-08-26T06:46:55.487Z,8.82
2022-08-26T06:49:26.817Z,9.27
2022-08-26T06:51:58.728Z,8.43
2022-08-26T06:54:27.811Z,8.27
2022-08-26T06:56:57.082Z,7.50
2022-08-26T06:59:25.554Z,8.57
2022-08-26T07:01:53.347Z,9.10
2022-08-26T07:04:22.391Z,8.60
2022-08-26T07:06:52.978Z,7.82
2022-08-26T07:09:25.961Z,7.90
2022-08-26T07:11:53.620Z,7.15
2022-08-26T07:14:21.867Z,8.07
2022-08-26T07:16:50.551Z,8.80
2022-08-26T07:19:30.996Z,8.32
2022-08-26T07:22:05.251Z,10.00
2022-08-26T07:24:35.473Z,8.90
2022-08-26T07:27:06.041Z,8.60
2022-08-26T07:29:34.523Z,7.93
2022-08-26T07:32:03.576Z,7.55
2022-08-26T07:34:33.160Z,8.68
2022-08-26T07:37:01.040Z,8.30
2022-08-26T07:39:28.599Z,8.00
2022-08-26T07:42:07.701Z,8.60
2022-08-26T07:44:37.445Z,8.88
2022-08-26T07:47:10.186Z,8.52
2022-08-26T07:49:52.680Z,8.02
2022-08-26T07:52:25.319Z,8.68
2022-08-26T07:54:53.617Z,8.63
2022-08-26T07:57:20.868Z,8.20
2022-08-26T07:59:47.962Z,7.70
2022-08-26T08:02:15.059Z,8.48
2022-08-26T08:04:43.375Z,8.55
2022-08-26T08:07:11.553Z,7.43
2022-08-26T08:09:40.713Z,8.18
2022-08-26T08:12:08.278Z,9.30
2022-08-26T08:14:45.301Z,7.47
2022-08-26T08:17:13.501Z,9.35
2022-08-26T08:19:41.194Z,8.07
2022-08-26T08:22:16.981Z,8.18
2022-08-26T08:24:45.564Z,8.38
2022-08-26T08:27:18.122Z,8.80
2022-08-26T08:29:50.155Z,8.40
2022-08-26T08:32:18.503Z,9.25
2022-08-26T08:34:45.539Z,8.45
2022-08-26T08:37:13.305Z,9.00
2022-08-26T08:39:41.983Z,9.10
2022-08-26T08:42:38.144Z,10.10
2022-08-26T08:45:15.470Z,8.23
2022-08-26T08:47:54.728Z,9.57
2022-08-26T08:50:33.933Z,8.80
2022-08-26T08:53:23.323Z,8.93
2022-08-26T08:56:15.085Z,9.55
2022-08-26T08:59:06.572Z,10.15
2022-08-26T09:01:46.270Z,9.38
2022-08-26T09:07:07.078Z,8.73
2022-08-26T09:10:55.781Z,8.13
2022-08-26T09:13:32.068Z,8.82
2022-08-26T09:16:03.055Z,9.82
2022-08-26T09:23:02.773Z,8.35
2022-08-26T09:25:32.831Z,8.75
2022-08-26T09:28:03.701Z,7.78
2022-08-26T09:30:35.500Z,8.70
2022-08-26T09:33:10.915Z,8.75
2022-08-26T09:35:40.875Z,7.95
2022-08-26T09:38:28.191Z,8.25
2022-08-26T09:40:59.666Z,8.35
2022-08-26T09:43:31.078Z,7.75
2022-08-26T09:46:25.978Z,8.18
2022-08-26T09:49:06.024Z,7.60
2022-08-26T11:10:43.299Z,8.25
2022-08-26T11:13:16.276Z,8.03
2022-08-26T11:26:56.382Z,7.03
2022-08-26T11:45:01.371Z,7.70
2022-08-26T11:51:48.109Z,6.95
2022-08-26T11:54:34.530Z,7.47
2022-08-26T11:57:25.215Z,7.88
2022-08-26T11:59:52.471Z,6.72
2022-08-26T12:26:21.382Z,7.35
2022-08-26T12:29:08.507Z,8.43
2022-08-26T12:31:48.252Z,6.47
2022-08-26T12:34:17.615Z,7.55
2022-08-26T12:39:38.496Z,6.22
2022-08-26T12:42:12.645Z,8.40
2022-08-26T12:44:53.401Z,7.13
2022-08-26T12:47:43.978Z,7.15
2022-08-26T12:50:31.106Z,7.75
2022-08-26T12:53:03.484Z,7.70
2022-08-26T12:55:38.389Z,6.57
2022-08-26T12:58:14.492Z,7.32
2022-08-26T13:00:58.218Z,8.15
2022-08-26T13:03:34.361Z,6.88
2022-08-26T13:06:16.677Z,7.75
2022-08-26T13:08:44.635Z,7.00
2022-08-26T13:11:20.316Z,7.60
2022-08-26T13:13:54.979Z,6.80
2022-08-26T13:16:26.748Z,7.05
2022-08-26T13:19:05.857Z,7.20
2022-08-26T13:25:44.561Z,7.40
2022-08-26T13:28:24.506Z,6.45
2022-08-26T13:36:10.580Z,7.05
2022-08-26T13:38:51.934Z,7.15
2022-08-26T16:56:22.654Z,8.32
2022-08-26T16:58:50.448Z,9.93
2022-08-26T17:01:18.381Z,9.95
2022-08-26T17:03:45.434Z,10.93
2022-08-26T17:06:13.454Z,9.88
2022-08-26T17:08:41.895Z,9.02
2022-08-26T17:11:09.226Z,10.07
2022-08-26T17:13:46.260Z,9.23
2022-08-26T17:16:26.372Z,8.73
2022-08-26T17:19:05.203Z,9.02
2022-08-26T17:21:36.764Z,9.88
2022-08-26T17:24:13.959Z,8.73
2022-08-26T17:26:48.335Z,9.23
2022-08-26T17:29:21.285Z,10.77
2022-08-26T17:31:48.947Z,11.25
2022-08-26T17:34:16.248Z,9.30
2022-08-26T17:36:43.473Z,11.40
2022-08-26T17:39:16.887Z,9.90
2022-08-26T17:41:44.685Z,8.68
2022-08-26T17:44:11.677Z,10.77
2022-08-26T17:46:41.635Z,10.52
2022-08-26T17:49:10.063Z,10.15
2022-08-26T17:51:37.052Z,10.23
2022-08-26T17:54:04.255Z,10.73
2022-08-26T17:56:56.296Z,10.27
2022-08-26T17:59:24.624Z,10.13
2022-08-26T18:02:00.831Z,9.93
2022-08-26T18:04:28.003Z,9.63
2022-08-26T18:06:55.003Z,10.27
2022-08-26T18:09:24.287Z,9.32
2022-08-26T18:11:51.284Z,10.68
2022-08-26T18:14:20.507Z,10.85
2022-08-26T18:16:47.470Z,10.35
2022-08-26T18:19:15.783Z,9.65
2022-08-26T18:21:47.807Z,9.48
2022-08-26T18:24:15.537Z,11.40
2022-08-26T18:27:02.265Z,10.45
2022-08-26T18:34:02.770Z,8.85
2022-08-26T18:39:45.304Z,11.05
2022-08-26T18:42:12.998Z,9.25
2022-08-26T18:45:13.376Z,9.18
2022-08-26T18:58:27.878Z,8.80
2022-08-26T19:06:31.671Z,8.75
2022-08-26T19:15:00.672Z,9.55
2022-08-26T19:17:52.463Z,8.73
2022-08-26T19:40:34.498Z,8.65
2022-08-26T19:44:06.669Z,8.48
2022-08-26T19:53:41.956Z,7.80
2022-08-26T19:56:38.062Z,9.15
2022-08-26T20:03:24.793Z,8.90
2022-08-26T20:11:14.668Z,8.00
2022-08-26T20:13:58.563Z,10.15
2022-08-26T20:16:38.578Z,7.82
2022-08-26T20:19:27.237Z,8.93
2022-08-26T20:21:54.337Z,8.52
2022-08-26T20:24:22.233Z,8.95
2022-08-26T20:26:50.198Z,8.35
2022-08-26T20:29:18.487Z,9.90
2022-08-26T20:31:47.261Z,9.43
2022-08-26T20:34:18.669Z,9.23
2022-08-26T20:36:48.190Z,10.73
2022-08-26T20:39:41.063Z,10.02
2022-08-26T20:42:20.174Z,9.48
2022-08-26T20:44:54.512Z,9.50
2022-08-26T20:47:23.420Z,9.43
2022-08-26T20:49:52.401Z,9.90
2022-08-26T20:52:20.674Z,9.32
2022-08-26T20:54:47.762Z,10.35
2022-08-26T20:57:14.968Z,10.10
2022-08-26T20:59:43.164Z,9.77
2022-08-26T21:02:10.363Z,9.43
2022-08-26T21:04:37.535Z,9.07
2022-08-26T21:07:04.686Z,9.70
2022-08-26T21:09:33.205Z,8.57
2022-08-26T21:12:00.313Z,8.30
2022-08-26T21:14:27.400Z,9.05
2022-08-26T21:16:54.816Z,7.55
2022-08-26T21:19:22.522Z,8.52
2022-08-26T21:21:50.236Z,8.45
2022-08-26T21:24:17.375Z,8.05
2022-08-26T21:26:44.825Z,8.82
2022-08-26T21:29:13.676Z,8.52
2022-08-26T21:31:46.177Z,8.75
2022-08-26T21:36:47.064Z,9.25
2022-08-26T21:39:14.916Z,7.82
2022-08-26T21:41:43.624Z,8.68
2022-08-26T21:44:11.976Z,8.73
2022-08-26T21:46:39.508Z,9.60
2022-08-26T21:49:09.734Z,9.15
2022-08-26T21:51:39.746Z,8.70
2022-08-26T21:54:11.146Z,8.98
2022-08-26T21:56:42.220Z,9.10
2022-08-26T21:59:10.275Z,8.75
2022-08-26T22:01:37.913Z,9.35
2022-08-26T22:04:07.180Z,9.23
2022-08-26T22:06:40.571Z,10.32
2022-08-26T22:09:07.800Z,8.02
2022-08-26T22:11:34.829Z,9.38
2022-08-26T22:14:02.113Z,9.15
2022-08-26T22:16:29.159Z,9.32
2022-08-26T22:18:56.486Z,9.95
2022-08-26T22:21:27.255Z,8.70
2022-08-26T22:23:58.206Z,8.82
2022-08-26T22:26:28.995Z,8.10
2022-08-26T22:28:58.959Z,8.25
2022-08-26T22:31:38.336Z,8.60
2022-08-26T22:34:11.915Z,8.50
2022-08-26T22:36:44.166Z,8.57
2022-08-26T22:39:17.390Z,9.65
2022-08-26T22:41:45.453Z,10.27
2022-08-26T22:44:12.751Z,8.10
2022-08-26T22:46:41.145Z,8.40
2022-08-26T22:49:10.705Z,8.48
2022-08-26T22:51:38.054Z,8.45
2022-08-26T22:54:06.491Z,6.88
2022-08-26T22:56:34.021Z,9.73
2022-08-26T22:59:01.157Z,9.25
2022-08-26T23:01:28.329Z,7.68
2022-08-26T23:03:55.506Z,10.75
2022-08-26T23:06:22.545Z,8.38
2022-08-26T23:08:49.599Z,7.63
2022-08-26T23:11:16.632Z,8.98
2022-08-26T23:13:43.690Z,9.63
2022-08-26T23:16:12.637Z,10.02
2022-08-26T23:18:40.999Z,8.52
2022-08-26T23:21:09.511Z,8.02
2022-08-26T23:23:38.111Z,8.27
2022-08-26T23:26:07.917Z,10.25
2022-08-26T23:28:39.222Z,9.07
2022-08-26T23:31:06.729Z,8.25
2022-08-26T23:33:52.230Z,7.90
2022-08-26T23:36:22.792Z,9.05
2022-08-26T23:38:52.728Z,8.10
2022-08-26T23:41:24.273Z,8.25
2022-08-26T23:43:51.796Z,7.65
2022-08-26T23:46:19.195Z,8.25
2022-08-26T23:48:47.014Z,8.02
2022-08-26T23:51:32.519Z,9.10
2022-08-26T23:53:59.591Z,8.57
2022-08-26T23:56:27.068Z,8.70
2022-08-26T23:58:55.291Z,8.57
